createdAt,value
2019-02-11T00:02:33.163Z,20.60
2019-02-11T00:05:19.086Z,20.70
2019-02-11T00:08:05.289Z,20.60
2019-02-11T00:10:51.447Z,20.60
2019-02-11T00:13:38.351Z,20.60
2019-02-11T00:16:24.632Z,20.60
2019-02-11T00:19:11.074Z,20.60
2019-02-11T00:21:58.467Z,20.60
2019-02-11T00:24:45.059Z,20.60
2019-02-11T00:27:31.334Z,20.60
2019-02-11T00:30:17.747Z,20.60
2019-02-11T00:33:03.999Z,20.60
2019-02-11T00:35:50.216Z,20.60
2019-02-11T00:38:36.497Z,20.60
2019-02-11T00:41:22.499Z,20.60
2019-02-11T00:44:08.809Z,20.60
2019-02-11T00:46:54.691Z,20.60
2019-02-11T00:49:40.503Z,20.60
2019-02-11T00:52:26.651Z,20.70
2019-02-11T00:55:12.969Z,20.70
2019-02-11T00:57:59.394Z,20.70
2019-02-11T01:00:45.875Z,20.70
2019-02-11T01:03:32.368Z,20.70
2019-02-11T01:06:18.620Z,20.70
2019-02-11T01:09:05.943Z,20.70
2019-02-11T01:11:52.304Z,20.70
2019-02-11T01:14:38.437Z,20.70
2019-02-11T01:17:24.868Z,20.80
2019-02-11T01:20:11.716Z,20.70
2019-02-11T01:22:59.160Z,20.80
2019-02-11T01:25:45.507Z,20.80
2019-02-11T01:28:31.803Z,20.80
2019-02-11T01:31:18.283Z,20.80
2019-02-11T01:34:04.651Z,20.80
2019-02-11T01:36:50.986Z,20.80
2019-02-11T01:39:37.380Z,20.80
2019-02-11T01:42:23.742Z,20.80
2019-02-11T01:45:10.868Z,20.80
2019-02-11T01:47:57.043Z,20.80
2019-02-11T01:50:43.373Z,20.80
2019-02-11T01:53:29.607Z,20.70
2019-02-11T01:56:15.897Z,20.80
2019-02-11T01:59:02.340Z,20.80
2019-02-11T02:01:48.629Z,20.80
2019-02-11T02:04:34.623Z,20.80
2019-02-11T02:07:21.919Z,20.70
2019-02-11T02:10:11.179Z,20.70
2019-02-11T02:12:57.115Z,20.70
2019-02-11T02:15:43.492Z,20.70
2019-02-11T02:18:30.156Z,20.70
2019-02-11T02:21:16.271Z,20.70
2019-02-11T02:24:02.442Z,20.70
2019-02-11T02:26:48.731Z,20.70
2019-02-11T02:29:35.221Z,20.70
2019-02-11T02:32:21.441Z,20.70
2019-02-11T02:35:07.762Z,20.70
2019-02-11T02:37:54.691Z,20.70
2019-02-11T02:40:40.947Z,20.70
2019-02-11T02:43:27.332Z,20.70
2019-02-11T02:46:14.108Z,20.70
2019-02-11T02:49:00.499Z,20.60
2019-02-11T02:51:46.880Z,20.60
2019-02-11T02:54:33.407Z,20.60
2019-02-11T02:57:19.684Z,20.60
2019-02-11T03:00:07.824Z,20.60
2019-02-11T03:02:54.079Z,20.60
2019-02-11T03:05:40.947Z,20.60
2019-02-11T03:08:27.167Z,20.60
2019-02-11T03:11:13.057Z,20.60
2019-02-11T03:14:05.472Z,20.70
2019-02-11T03:16:47.128Z,20.60
2019-02-11T03:19:33.585Z,20.70
2019-02-11T03:22:19.977Z,20.60
2019-02-11T03:25:06.484Z,20.60
2019-02-11T03:27:53.304Z,20.60
2019-02-11T03:30:39.552Z,20.60
2019-02-11T03:33:25.851Z,20.60
2019-02-11T03:36:12.200Z,20.60
2019-02-11T03:38:58.731Z,20.60
2019-02-11T03:41:44.944Z,20.60
2019-02-11T03:44:31.079Z,20.60
2019-02-11T03:47:17.311Z,20.60
2019-02-11T03:50:04.568Z,20.60
2019-02-11T03:52:50.385Z,20.60
2019-02-11T03:55:37.110Z,20.60
2019-02-11T03:58:23.259Z,20.60
2019-02-11T04:01:09.408Z,20.60
2019-02-11T04:03:55.735Z,20.60
2019-02-11T04:06:42.144Z,20.60
2019-02-11T04:09:28.407Z,20.60
2019-02-11T04:12:14.609Z,20.60
2019-02-11T04:15:02.010Z,20.60
2019-02-11T04:17:48.420Z,20.60
2019-02-11T04:20:35.000Z,20.60
2019-02-11T04:23:21.342Z,20.60
2019-02-11T04:26:07.585Z,20.60
2019-02-11T04:28:54.251Z,20.60
2019-02-11T04:31:40.581Z,20.60
2019-02-11T04:34:26.731Z,20.60
2019-02-11T04:37:12.691Z,20.70
2019-02-11T04:39:59.356Z,20.60
2019-02-11T04:42:45.624Z,20.70
2019-02-11T04:45:31.992Z,20.60
2019-02-11T04:48:18.275Z,20.60
2019-02-11T04:51:04.766Z,20.70
2019-02-11T04:53:51.292Z,20.70
2019-02-11T04:56:37.563Z,20.70
2019-02-11T04:59:23.922Z,20.70
2019-02-11T05:02:10.444Z,20.70
2019-02-11T05:04:56.736Z,20.70
2019-02-11T05:07:43.196Z,20.70
2019-02-11T05:10:29.651Z,20.70
2019-02-11T05:13:16.074Z,20.70
2019-02-11T05:16:02.263Z,20.70
2019-02-11T05:18:48.887Z,20.70
2019-02-11T05:21:35.196Z,20.70
2019-02-11T05:24:21.552Z,20.70
2019-02-11T05:27:07.953Z,20.70
2019-02-11T05:29:54.293Z,20.70
2019-02-11T05:32:40.883Z,20.70
2019-02-11T05:35:27.099Z,20.70
2019-02-11T05:38:13.482Z,20.70
2019-02-11T05:41:00.064Z,20.70
2019-02-11T05:43:46.266Z,20.70
2019-02-11T05:46:32.452Z,20.70
2019-02-11T05:49:18.419Z,20.80
2019-02-11T05:52:04.659Z,20.70
2019-02-11T05:54:50.885Z,20.70
2019-02-11T05:57:37.365Z,20.70
2019-02-11T06:00:23.659Z,20.70
2019-02-11T06:03:10.411Z,20.70
2019-02-11T06:05:56.908Z,20.70
2019-02-11T06:08:43.229Z,20.70
2019-02-11T06:11:29.161Z,20.70
2019-02-11T06:14:15.500Z,20.80
2019-02-11T06:17:02.932Z,20.80
2019-02-11T06:19:49.591Z,20.70
2019-02-11T06:22:35.876Z,20.80
2019-02-11T06:25:22.244Z,20.70
2019-02-11T06:28:08.099Z,20.70
2019-02-11T06:30:54.475Z,20.70
2019-02-11T06:33:40.500Z,20.70
2019-02-11T06:36:26.435Z,20.70
2019-02-11T06:39:12.687Z,20.70
2019-02-11T06:41:58.967Z,20.70
2019-02-11T06:44:45.432Z,20.70
2019-02-11T06:47:31.751Z,20.70
2019-02-11T06:50:18.121Z,20.70
2019-02-11T06:53:05.454Z,20.70
2019-02-11T06:55:51.811Z,20.70
2019-02-11T06:58:38.117Z,20.70
2019-02-11T07:01:23.943Z,20.70
2019-02-11T07:04:10.318Z,20.70
2019-02-11T07:06:56.591Z,20.70
2019-02-11T07:09:43.556Z,20.70
2019-02-11T07:12:30.942Z,20.70
2019-02-11T07:15:22.114Z,20.70
2019-02-11T07:18:05.852Z,20.70
2019-02-11T07:20:52.655Z,20.70
2019-02-11T07:23:38.983Z,20.70
2019-02-11T07:26:25.459Z,20.70
2019-02-11T07:29:12.625Z,20.80
2019-02-11T07:31:59.139Z,20.80
2019-02-11T07:34:45.511Z,20.80
2019-02-11T07:37:31.563Z,20.90
2019-02-11T07:40:18.883Z,20.90
2019-02-11T07:43:15.051Z,20.90
2019-02-11T07:46:38.847Z,20.90
2019-02-11T07:49:25.100Z,20.80
2019-02-11T07:52:11.567Z,20.80
2019-02-11T07:54:58.027Z,20.80
2019-02-11T07:57:44.012Z,20.80
2019-02-11T08:00:30.395Z,20.80
2019-02-11T08:03:16.717Z,20.80
2019-02-11T08:06:03.719Z,20.80
2019-02-11T08:08:49.983Z,20.80
2019-02-11T08:11:36.435Z,20.80
2019-02-11T08:14:22.751Z,20.80
2019-02-11T08:17:08.581Z,20.80
2019-02-11T08:19:55.732Z,20.80
2019-02-11T08:22:42.455Z,20.80
2019-02-11T08:25:28.697Z,20.80
2019-02-11T08:28:19.536Z,20.80
2019-02-11T08:31:03.840Z,20.80
2019-02-11T08:33:50.551Z,20.80
2019-02-11T08:36:36.933Z,20.80
2019-02-11T08:39:23.312Z,20.80
2019-02-11T08:42:09.556Z,20.80
2019-02-11T08:44:56.023Z,20.80
2019-02-11T08:47:42.384Z,20.80
2019-02-11T08:50:28.721Z,20.80
2019-02-11T08:53:14.859Z,20.80
2019-02-11T08:56:03.394Z,20.80
2019-02-11T08:58:49.977Z,20.80
2019-02-11T09:01:36.348Z,20.80
2019-02-11T09:04:22.849Z,20.80
2019-02-11T09:07:09.211Z,20.80
2019-02-11T09:09:55.491Z,20.80
2019-02-11T09:12:41.905Z,20.80
2019-02-11T09:15:28.100Z,20.80
2019-02-11T09:18:14.716Z,20.80
2019-02-11T09:21:00.629Z,20.80
2019-02-11T09:23:47.067Z,20.80
2019-02-11T09:26:33.093Z,20.80
2019-02-11T09:29:19.476Z,20.80
2019-02-11T09:32:05.635Z,20.80
2019-02-11T09:34:51.576Z,20.80
2019-02-11T09:37:37.980Z,20.80
2019-02-11T09:40:24.226Z,20.80
2019-02-11T09:43:10.441Z,20.80
2019-02-11T09:46:03.755Z,20.80
2019-02-11T09:48:44.828Z,20.90
2019-02-11T09:51:33.691Z,20.80
2019-02-11T09:54:19.820Z,20.80
2019-02-11T09:57:06.123Z,20.80
2019-02-11T09:59:52.192Z,20.80
2019-02-11T10:02:38.661Z,20.80
2019-02-11T10:05:24.939Z,20.90
2019-02-11T10:08:13.003Z,20.80
2019-02-11T10:10:59.419Z,20.90
2019-02-11T10:13:45.731Z,20.90
2019-02-11T10:16:31.452Z,20.80
2019-02-11T10:19:17.383Z,20.80
2019-02-11T10:22:03.100Z,20.90
2019-02-11T10:24:49.048Z,20.80
2019-02-11T10:27:35.338Z,20.80
2019-02-11T10:30:21.383Z,20.90
2019-02-11T10:33:08.195Z,20.80
2019-02-11T10:35:55.014Z,20.90
2019-02-11T10:38:41.455Z,20.90
2019-02-11T10:41:28.336Z,20.90
2019-02-11T10:44:14.369Z,20.90
2019-02-11T10:47:00.599Z,20.90
2019-02-11T10:49:46.988Z,20.90
2019-02-11T10:52:33.432Z,20.90
2019-02-11T10:55:19.859Z,20.90
2019-02-11T10:58:06.439Z,20.90
2019-02-11T11:00:52.989Z,20.90
2019-02-11T11:03:39.144Z,20.90
2019-02-11T11:06:25.488Z,21.00
2019-02-11T11:09:16.383Z,21.00
2019-02-11T11:12:02.599Z,20.90
2019-02-11T11:14:49.129Z,21.00
2019-02-11T11:17:35.401Z,21.00
2019-02-11T11:20:22.480Z,20.90
2019-02-11T11:23:08.523Z,20.90
2019-02-11T11:25:55.106Z,20.90
2019-02-11T11:28:41.126Z,20.90
2019-02-11T11:31:28.835Z,20.90
2019-02-11T11:34:15.089Z,20.90
2019-02-11T11:37:01.452Z,20.90
2019-02-11T11:39:49.091Z,21.00
2019-02-11T11:42:34.791Z,21.00
2019-02-11T11:45:21.147Z,20.90
2019-02-11T11:48:07.832Z,20.90
2019-02-11T11:50:54.108Z,20.90
2019-02-11T11:53:40.724Z,20.90
2019-02-11T11:56:27.092Z,20.80
2019-02-11T11:59:13.863Z,20.80
2019-02-11T12:02:00.190Z,20.80
2019-02-11T12:04:46.645Z,20.80
2019-02-11T12:07:32.994Z,20.80
2019-02-11T12:10:19.581Z,20.80
2019-02-11T12:13:21.716Z,20.80
2019-02-11T12:15:54.468Z,20.80
2019-02-11T12:18:40.819Z,20.80
2019-02-11T12:21:28.214Z,20.80
2019-02-11T12:24:14.469Z,20.80
2019-02-11T12:27:00.777Z,20.80
2019-02-11T12:29:47.230Z,20.70
2019-02-11T12:32:33.473Z,20.70
2019-02-11T12:35:19.793Z,20.70
2019-02-11T12:38:06.185Z,20.70
2019-02-11T12:40:52.429Z,20.70
2019-02-11T12:43:38.845Z,20.60
2019-02-11T12:46:25.138Z,20.60
2019-02-11T12:49:11.491Z,20.60
2019-02-11T12:51:57.943Z,20.60
2019-02-11T12:54:44.359Z,20.60
2019-02-11T12:57:30.654Z,20.60
2019-02-11T13:00:18.809Z,20.60
2019-02-11T13:03:06.044Z,20.60
2019-02-11T13:05:52.437Z,20.60
2019-02-11T13:08:38.709Z,20.60
2019-02-11T13:11:25.776Z,20.60
2019-02-11T13:14:12.066Z,20.60
2019-02-11T13:16:58.550Z,20.60
2019-02-11T13:19:44.989Z,20.60
2019-02-11T13:22:31.257Z,20.60
2019-02-11T13:25:17.905Z,20.60
2019-02-11T13:28:05.261Z,20.60
2019-02-11T13:30:51.435Z,20.60
2019-02-11T13:33:37.820Z,20.60
2019-02-11T13:36:24.099Z,20.60
2019-02-11T13:39:10.820Z,20.60
2019-02-11T13:41:57.574Z,20.60
2019-02-11T13:44:44.138Z,20.60
2019-02-11T13:47:30.320Z,20.70
2019-02-11T13:50:19.311Z,20.60
2019-02-11T13:53:05.556Z,20.70
2019-02-11T13:55:52.625Z,20.70
2019-02-11T13:58:38.918Z,20.70
2019-02-11T14:01:25.660Z,20.70
2019-02-11T14:04:11.716Z,20.70
2019-02-11T14:06:57.726Z,20.70
2019-02-11T14:09:44.012Z,20.70
2019-02-11T14:12:30.359Z,20.70
2019-02-11T14:15:20.284Z,20.70
2019-02-11T14:18:13.040Z,20.70
2019-02-11T14:20:57.053Z,20.70
2019-02-11T14:23:43.387Z,20.70
2019-02-11T14:26:29.680Z,20.70
2019-02-11T14:29:16.201Z,20.70
2019-02-11T14:32:03.476Z,20.70
2019-02-11T14:34:49.862Z,20.70
2019-02-11T14:37:37.341Z,20.70
2019-02-11T14:40:23.585Z,20.70
2019-02-11T14:43:10.555Z,20.70
2019-02-11T14:45:57.875Z,20.70
2019-02-11T14:48:44.834Z,20.70
2019-02-11T14:51:31.153Z,20.60
2019-02-11T14:54:17.989Z,20.70
2019-02-11T14:57:04.934Z,20.60
2019-02-11T14:59:51.206Z,20.60
2019-02-11T15:02:37.538Z,20.60
2019-02-11T15:05:23.786Z,20.60
2019-02-11T15:08:09.808Z,20.60
2019-02-11T15:10:56.114Z,20.60
2019-02-11T15:13:42.515Z,20.60
2019-02-11T15:16:28.868Z,20.60
2019-02-11T15:19:15.759Z,20.60
2019-02-11T15:22:02.062Z,20.60
2019-02-11T15:24:49.074Z,20.60
2019-02-11T15:27:35.370Z,20.60
2019-02-11T15:30:21.765Z,20.60
2019-02-11T15:33:08.121Z,20.60
2019-02-11T15:35:54.789Z,20.50
2019-02-11T15:38:41.117Z,20.50
2019-02-11T15:41:27.706Z,20.50
2019-02-11T15:44:14.055Z,20.50
2019-02-11T15:47:00.491Z,20.50
2019-02-11T15:49:46.976Z,20.50
2019-02-11T15:52:33.297Z,20.50
2019-02-11T15:55:19.726Z,20.50
2019-02-11T15:58:06.210Z,20.40
2019-02-11T16:00:52.446Z,20.40
2019-02-11T16:03:38.838Z,20.40
2019-02-11T16:06:25.259Z,20.40
2019-02-11T16:09:11.723Z,20.40
2019-02-11T16:11:58.041Z,20.40
2019-02-11T16:14:44.561Z,20.30
2019-02-11T16:17:30.854Z,20.30
2019-02-11T16:20:17.580Z,20.30
2019-02-11T16:23:04.282Z,20.40
2019-02-11T16:25:50.613Z,20.40
2019-02-11T16:28:37.013Z,20.30
2019-02-11T16:31:23.375Z,20.40
2019-02-11T16:34:09.633Z,20.30
2019-02-11T16:36:56.671Z,20.30
2019-02-11T16:39:42.975Z,20.40
2019-02-11T16:42:29.363Z,20.40
2019-02-11T16:45:16.154Z,20.40
2019-02-11T16:48:02.450Z,20.40
2019-02-11T16:50:48.677Z,20.40
2019-02-11T16:53:34.877Z,20.40
2019-02-11T16:56:21.229Z,20.30
2019-02-11T16:59:07.634Z,20.30
2019-02-11T17:01:54.222Z,20.40
2019-02-11T17:04:41.717Z,20.40
2019-02-11T17:07:27.827Z,20.40
2019-02-11T17:10:14.778Z,20.40
2019-02-11T17:13:02.023Z,20.40
2019-02-11T17:15:48.957Z,20.40
2019-02-11T17:18:35.438Z,20.30
2019-02-11T17:21:22.284Z,20.40
2019-02-11T17:24:08.606Z,20.40
2019-02-11T17:26:55.902Z,20.30
2019-02-11T17:29:42.085Z,20.40
2019-02-11T17:32:28.609Z,20.30
2019-02-11T17:35:15.089Z,20.30
2019-02-11T17:38:01.370Z,20.30
2019-02-11T17:40:47.754Z,20.30
2019-02-11T17:43:34.355Z,20.30
2019-02-11T17:46:20.866Z,20.30
2019-02-11T17:49:07.876Z,20.30
2019-02-11T17:51:53.885Z,20.30
2019-02-11T17:54:41.345Z,20.20
2019-02-11T17:57:27.710Z,20.30
2019-02-11T18:00:26.710Z,20.30
2019-02-11T18:03:12.793Z,20.20
2019-02-11T18:06:00.359Z,20.30
2019-02-11T18:08:46.834Z,20.30
2019-02-11T18:11:33.519Z,20.30
2019-02-11T18:14:20.203Z,20.20
2019-02-11T18:17:06.377Z,20.20
2019-02-11T18:19:52.589Z,20.20
2019-02-11T18:22:39.525Z,20.20
2019-02-11T18:25:25.801Z,20.20
2019-02-11T18:28:12.179Z,20.20
2019-02-11T18:30:58.616Z,20.20
2019-02-11T18:33:45.238Z,20.20
2019-02-11T18:36:31.633Z,20.20
2019-02-11T18:39:18.858Z,20.20
2019-02-11T18:42:05.106Z,20.10
2019-02-11T18:44:51.739Z,20.20
2019-02-11T18:47:38.270Z,20.20
2019-02-11T18:50:25.198Z,20.20
2019-02-11T18:53:11.462Z,20.20
2019-02-11T18:55:57.810Z,20.20
2019-02-11T18:58:44.275Z,20.20
2019-02-11T19:01:30.575Z,20.20
2019-02-11T19:04:17.100Z,20.20
2019-02-11T19:07:03.606Z,20.30
2019-02-11T19:09:50.914Z,20.30
2019-02-11T19:12:37.544Z,20.20
2019-02-11T19:15:23.825Z,20.30
2019-02-11T19:18:10.397Z,20.20
2019-02-11T19:20:57.885Z,20.20
2019-02-11T19:23:46.070Z,20.30
2019-02-11T19:26:32.022Z,20.20
2019-02-11T19:29:18.730Z,20.30
2019-02-11T19:32:04.957Z,20.20
2019-02-11T19:34:51.730Z,20.30
2019-02-11T19:37:38.110Z,20.30
2019-02-11T19:40:24.473Z,20.30
2019-02-11T19:43:10.626Z,20.30
2019-02-11T19:45:57.019Z,20.30
2019-02-11T19:48:43.375Z,20.20
2019-02-11T19:51:29.890Z,20.20
2019-02-11T19:54:16.454Z,20.20
2019-02-11T19:57:02.864Z,20.20
2019-02-11T19:59:49.195Z,20.20
2019-02-11T20:02:35.865Z,20.20
2019-02-11T20:05:22.070Z,20.20
2019-02-11T20:08:08.304Z,20.20
2019-02-11T20:10:54.613Z,20.20
2019-02-11T20:13:41.798Z,20.20
2019-02-11T20:16:27.733Z,20.20
2019-02-11T20:19:14.269Z,20.20
2019-02-11T20:22:00.489Z,20.20
2019-02-11T20:24:47.077Z,20.10
2019-02-11T20:27:33.431Z,20.10
2019-02-11T20:30:21.853Z,20.20
2019-02-11T20:33:08.191Z,20.20
2019-02-11T20:35:54.431Z,20.10
2019-02-11T20:38:40.717Z,20.10
2019-02-11T20:41:27.542Z,20.20
2019-02-11T20:44:13.725Z,20.20
2019-02-11T20:47:00.248Z,20.20
2019-02-11T20:49:46.870Z,20.20
2019-02-11T20:52:33.094Z,20.20
2019-02-11T20:55:19.447Z,20.20
2019-02-11T20:58:05.941Z,20.20
2019-02-11T21:00:52.171Z,20.20
2019-02-11T21:03:38.466Z,20.20
2019-02-11T21:06:24.977Z,20.20
2019-02-11T21:09:11.371Z,20.20
2019-02-11T21:11:57.710Z,20.20
2019-02-11T21:14:44.210Z,20.20
2019-02-11T21:17:30.486Z,20.20
2019-02-11T21:20:20.765Z,20.20
2019-02-11T21:23:08.845Z,20.20
2019-02-11T21:25:55.005Z,20.20
2019-02-11T21:28:41.350Z,20.20
2019-02-11T21:31:27.738Z,20.20
2019-02-11T21:34:13.930Z,20.20
2019-02-11T21:37:00.181Z,20.30
2019-02-11T21:39:46.673Z,20.20
2019-02-11T21:42:32.945Z,20.20
2019-02-11T21:45:19.310Z,20.20
2019-02-11T21:48:06.125Z,20.20
2019-02-11T21:50:52.506Z,20.20
2019-02-11T21:53:38.846Z,20.20
2019-02-11T21:56:25.247Z,20.20
2019-02-11T21:59:11.569Z,20.20
2019-02-11T22:01:57.866Z,20.10
2019-02-11T22:04:44.470Z,20.20
2019-02-11T22:07:30.481Z,20.20
2019-02-11T22:10:17.394Z,20.20
2019-02-11T22:13:03.722Z,20.10
2019-02-11T22:15:49.970Z,20.10
2019-02-11T22:18:36.357Z,20.10
2019-02-11T22:21:22.703Z,20.10
2019-02-11T22:24:08.995Z,20.10
2019-02-11T22:26:55.472Z,20.10
2019-02-11T22:29:41.785Z,20.10
2019-02-11T22:32:28.671Z,20.10
2019-02-11T22:35:15.365Z,20.10
2019-02-11T22:38:01.542Z,20.10
2019-02-11T22:40:47.804Z,20.10
2019-02-11T22:43:34.681Z,20.10
2019-02-11T22:46:20.941Z,20.10
2019-02-11T22:49:07.355Z,20.20
2019-02-11T22:51:53.723Z,20.10
2019-02-11T22:54:40.338Z,20.10
2019-02-11T22:57:27.255Z,20.20
2019-02-11T23:00:46.634Z,20.20
2019-02-11T23:03:34.841Z,20.20
2019-02-11T23:06:21.125Z,20.20
2019-02-11T23:09:11.414Z,20.20
2019-02-11T23:11:57.417Z,20.20
2019-02-11T23:14:43.736Z,20.20
2019-02-11T23:17:30.075Z,20.20
2019-02-11T23:20:16.693Z,20.20
2019-02-11T23:23:03.022Z,20.20
2019-02-11T23:25:49.200Z,20.20
2019-02-11T23:28:35.672Z,20.20
2019-02-11T23:31:21.956Z,20.20
2019-02-11T23:34:08.272Z,20.20
2019-02-11T23:36:54.668Z,20.20
2019-02-11T23:39:41.083Z,20.20
2019-02-11T23:42:27.556Z,20.20
2019-02-11T23:45:13.892Z,20.20
2019-02-11T23:48:00.134Z,20.20
2019-02-11T23:50:46.740Z,20.20
2019-02-11T23:53:33.120Z,20.20
2019-02-11T23:56:19.384Z,20.20
2019-02-11T23:59:05.799Z,20.20
